Middle Village, NY (11379)

1:22 PM EDT on September 23, 2014 (GMT -0400)
Middle Village Juniper Valley Park | Change Station
CLOSE
Current Station
Personal Weather Station
Location: Queens, NY
Elevation: 108 ft
Nearby Weather Stations

Elev 108 ft 40.72 °N, 73.89 °W | Updated 9 seconds ago

Partly Cloudy
Partly Cloudy
67.2 °F
Feels Like 67.2 °F
N
3.0
Wind Variable Wind from WSW
Gusts 6.0 mph

Today
High -- | Low -- °F
--% Chance of Precip.
Yesterday
High -- | Low -- °F
Precip. -- in
6:44 AM 6:51 PM
Waning Crescent, 0% visible
Pressure 30.32 in
Visibility 10.0 miles
Clouds Scattered Clouds 25000 ft
Dew Point 44 °F
Humidity 44%
Rainfall 0.00 in
Snow Depth Not available.
UV 6 out of 12
Pollen 3.10 out of 12
Air Quality Not available.
Flu Activity Not available.
METAR KLGA 231651Z 00000KT 10SM SCT250 19/05 A3032 RMK AO2 SLP267 T01890050

More Conditions Fewer Conditions

Pressure 30.32 in
Visibility 10.0 miles
Clouds Scattered Clouds 25000 ft
Dew Point 44 °F
Humidity 44%
Rainfall 0.00 in
Snow Depth Not available.
UV 6 out of 12
Pollen 3.10 out of 12
Air Quality Not available.
Flu Activity Not available.
METAR KLGA 231651Z 00000KT 10SM SCT250 19/05 A3032 RMK AO2 SLP267 T01890050

More Conditions Fewer Conditions

10-Day Weather Forecast

Almanac

Astronomy

Sep. 23, 2014 Rise Set
Actual Time 6:44 AM EDT 6:51 PM EDT
Civil Twilight 6:16 AM EDT 7:18 PM EDT
Nautical Twilight 5:44 AM EDT 7:50 PM EDT
Astronomical Twilight 5:12 AM EDT 8:22 PM EDT
Moon 6:05 AM EDT 6:28 PM EDT
Length of Visible Light 13h 01m
Length of Day
12h 07m
Tomorrow will be 2m 42s shorter.
Waning Crescent, 0% of the Moon is Illuminated
Today
Waning Crescent
Sep 24
New
Oct 1
First Quarter
Oct 8
Full
Oct 15
Last Quarter

Today's Extremes

State Highs State Lows

Community

WunderPhotos

Upload Photos

1,755,756 photos uploaded!

WunderBlogs® & News

Nearby

Snow Depth

Station Depth Elevation
No new snow has been reported.

Earthquake Activity

City Distance Mag. Time & Date
No recent earthquake activity has been reported nearby.
Minimum magnitude displayed is 2.5.

Coastal Water Temperatures

Place Temperature
Sandy Hook, NJ 68.0 °F
The Battery, NY 70.0 °F
Bergen Point West Reach, NJ 70.0 °F
Kings Point, NY 66.0 °F

Nearby Weather Stations